createdAt,value
2018-11-06T00:02:24.787Z,17.32
2018-11-06T00:05:00.799Z,17.52
2018-11-06T00:07:31.359Z,15.60
2018-11-06T00:10:01.949Z,16.23
2018-11-06T00:12:32.690Z,15.45
2018-11-06T00:15:03.307Z,16.82
2018-11-06T00:17:33.854Z,16.30
2018-11-06T00:20:06.052Z,15.80
2018-11-06T00:22:36.688Z,16.02
2018-11-06T00:25:08.731Z,16.45
2018-11-06T00:27:39.647Z,16.40
2018-11-06T00:30:12.155Z,16.35
2018-11-06T00:32:43.064Z,15.28
2018-11-06T00:35:14.963Z,14.47
2018-11-06T00:37:45.873Z,14.83
2018-11-06T00:40:16.641Z,15.58
2018-11-06T00:42:47.385Z,15.68
2018-11-06T00:45:18.023Z,16.05
2018-11-06T00:47:48.607Z,16.10
2018-11-06T00:50:19.189Z,16.15
2018-11-06T00:52:49.760Z,15.75
2018-11-06T00:55:20.706Z,15.60
2018-11-06T00:57:51.300Z,14.93
2018-11-06T01:00:21.911Z,14.93
2018-11-06T01:02:53.007Z,15.43
2018-11-06T01:05:23.584Z,15.68
2018-11-06T01:07:54.190Z,16.02
2018-11-06T01:10:24.754Z,14.98
2018-11-06T01:12:55.357Z,15.30
2018-11-06T01:15:25.928Z,14.78
2018-11-06T01:17:56.527Z,14.98
2018-11-06T01:20:27.638Z,15.03
2018-11-06T01:22:58.236Z,15.18
2018-11-06T01:25:28.791Z,14.38
2018-11-06T01:27:59.378Z,14.53
2018-11-06T01:30:29.956Z,14.85
2018-11-06T01:33:00.550Z,15.18
2018-11-06T01:35:31.124Z,14.20
2018-11-06T01:38:01.743Z,14.87
2018-11-06T01:40:32.315Z,15.25
2018-11-06T01:43:02.917Z,14.83
2018-11-06T01:45:33.688Z,15.05
2018-11-06T01:48:04.321Z,14.25
2018-11-06T01:50:34.901Z,14.75
2018-11-06T01:53:05.851Z,14.65
2018-11-06T01:55:36.395Z,16.00
2018-11-06T01:58:07.041Z,14.68
2018-11-06T02:00:37.834Z,17.35
2018-11-06T02:03:08.419Z,14.13
2018-11-06T02:05:39.019Z,14.78
2018-11-06T02:08:08.748Z,15.13
2018-11-06T02:10:39.348Z,14.20
2018-11-06T02:13:09.936Z,14.28
2018-11-06T02:15:40.523Z,14.58
2018-11-06T02:18:11.093Z,15.70
2018-11-06T02:20:42.016Z,13.58
2018-11-06T02:23:12.575Z,14.93
2018-11-06T02:25:43.178Z,14.78
2018-11-06T02:28:13.765Z,14.53
2018-11-06T02:30:44.532Z,16.42
2018-11-06T02:33:15.108Z,14.35
2018-11-06T02:35:45.699Z,15.88
2018-11-06T02:38:16.275Z,15.23
2018-11-06T02:40:46.863Z,16.15
2018-11-06T02:43:17.453Z,15.85
2018-11-06T02:45:48.040Z,15.20
2018-11-06T02:48:18.811Z,16.25
2018-11-06T02:50:49.375Z,15.78
2018-11-06T02:53:19.960Z,15.43
2018-11-06T02:55:50.602Z,14.70
2018-11-06T02:58:21.365Z,13.83
2018-11-06T03:00:51.962Z,15.18
2018-11-06T03:03:22.536Z,15.18
2018-11-06T03:05:53.115Z,16.87
2018-11-06T03:08:23.678Z,16.57
2018-11-06T03:10:54.284Z,15.93
2018-11-06T03:13:24.859Z,14.63
2018-11-06T03:15:55.445Z,18.37
2018-11-06T03:18:25.995Z,18.30
2018-11-06T03:20:56.918Z,18.23
2018-11-06T03:23:27.460Z,17.85
2018-11-06T03:25:58.311Z,17.57
2018-11-06T03:28:28.893Z,17.65
2018-11-06T03:30:59.477Z,15.45
2018-11-06T03:33:30.228Z,16.20
2018-11-06T03:36:00.815Z,16.23
2018-11-06T03:38:31.392Z,15.15
2018-11-06T03:41:02.208Z,17.30
2018-11-06T03:43:32.817Z,17.48
2018-11-06T03:46:03.407Z,14.95
2018-11-06T03:48:34.000Z,18.23
2018-11-06T03:51:05.460Z,18.07
2018-11-06T03:53:36.046Z,18.40
2018-11-06T03:56:07.327Z,19.15
2018-11-06T03:58:37.963Z,21.05
2018-11-06T04:01:08.717Z,20.77
2018-11-06T04:03:39.299Z,19.87
2018-11-06T04:06:09.859Z,17.90
2018-11-06T04:08:40.468Z,20.00
2018-11-06T04:11:11.043Z,20.37
2018-11-06T04:13:41.618Z,19.42
2018-11-06T04:16:12.175Z,18.48
2018-11-06T04:18:42.759Z,17.35
2018-11-06T04:21:13.519Z,19.25
2018-11-06T04:23:44.359Z,19.32
2018-11-06T04:26:15.152Z,18.27
2018-11-06T04:28:45.734Z,20.85
2018-11-06T04:31:16.516Z,18.60
2018-11-06T04:33:47.096Z,19.80
2018-11-06T04:36:17.653Z,21.60
2018-11-06T04:38:48.259Z,18.75
2018-11-06T04:41:19.088Z,19.82
2018-11-06T04:43:49.796Z,18.92
2018-11-06T04:46:20.432Z,20.02
2018-11-06T04:48:51.565Z,18.95
2018-11-06T04:51:22.166Z,19.40
2018-11-06T04:53:56.939Z,18.82
2018-11-06T04:56:28.420Z,19.52
2018-11-06T04:58:59.019Z,19.35
2018-11-06T05:01:29.787Z,20.77
2018-11-06T05:04:00.438Z,20.57
2018-11-06T05:06:31.036Z,19.67
2018-11-06T05:09:01.620Z,18.77
2018-11-06T05:11:32.402Z,20.82
2018-11-06T05:14:03.385Z,18.10
2018-11-06T05:16:34.115Z,21.62
2018-11-06T05:19:05.504Z,20.72
2018-11-06T05:21:36.056Z,20.25
2018-11-06T05:24:06.701Z,18.77
2018-11-06T05:26:37.290Z,20.08
2018-11-06T05:29:08.059Z,16.70
2018-11-06T05:31:38.646Z,17.90
2018-11-06T05:34:09.207Z,18.20
2018-11-06T05:36:39.783Z,20.05
2018-11-06T05:39:11.585Z,19.17
2018-11-06T05:41:42.284Z,20.30
2018-11-06T05:44:12.892Z,19.17
2018-11-06T05:46:43.467Z,18.40
2018-11-06T05:49:14.245Z,18.30
2018-11-06T05:51:44.856Z,19.98
2018-11-06T05:54:15.424Z,19.75
2018-11-06T05:56:46.013Z,18.05
2018-11-06T05:59:16.607Z,20.82
2018-11-06T06:01:47.388Z,18.35
2018-11-06T06:04:17.952Z,18.77
2018-11-06T06:06:48.771Z,18.37
2018-11-06T06:09:19.327Z,17.95
2018-11-06T06:11:49.896Z,19.77
2018-11-06T06:14:20.483Z,18.05
2018-11-06T06:16:51.058Z,18.82
2018-11-06T06:19:21.820Z,18.37
2018-11-06T06:21:52.358Z,18.35
2018-11-06T06:24:23.128Z,18.55
2018-11-06T06:26:53.870Z,16.42
2018-11-06T06:29:24.471Z,17.55
2018-11-06T06:31:55.032Z,17.42
2018-11-06T06:34:25.649Z,20.60
2018-11-06T06:36:56.432Z,21.35
2018-11-06T06:39:27.241Z,20.50
2018-11-06T06:41:57.820Z,20.23
2018-11-06T06:44:28.410Z,19.65
2018-11-06T06:46:58.950Z,18.25
2018-11-06T06:49:29.539Z,19.67
2018-11-06T06:52:00.102Z,18.65
2018-11-06T06:54:30.859Z,17.25
2018-11-06T06:57:01.451Z,18.00
2018-11-06T06:59:32.039Z,17.82
2018-11-06T07:02:02.603Z,16.60
2018-11-06T07:04:33.212Z,16.93
2018-11-06T07:07:04.104Z,16.27
2018-11-06T07:09:34.919Z,17.35
2018-11-06T07:12:05.662Z,15.38
2018-11-06T07:14:36.288Z,14.65
2018-11-06T07:17:06.848Z,16.75
2018-11-06T07:19:37.423Z,15.58
2018-11-06T07:22:07.993Z,15.13
2018-11-06T07:24:38.583Z,15.38
2018-11-06T07:27:09.167Z,14.83
2018-11-06T07:29:39.775Z,14.20
2018-11-06T07:32:10.359Z,14.87
2018-11-06T07:37:46.364Z,15.55
2018-11-06T07:40:18.858Z,14.98
2018-11-06T07:42:49.407Z,15.45
2018-11-06T07:45:21.659Z,13.88
2018-11-06T07:47:52.256Z,15.68
2018-11-06T07:50:23.086Z,13.85
2018-11-06T07:52:54.132Z,13.48
2018-11-06T07:55:24.707Z,13.28
2018-11-06T07:58:02.204Z,13.30
2018-11-06T08:00:32.784Z,13.05
2018-11-06T08:03:03.716Z,12.35
2018-11-06T08:05:34.271Z,12.98
2018-11-06T08:08:05.480Z,12.55
2018-11-06T08:10:36.083Z,12.45
2018-11-06T08:13:06.667Z,12.53
2018-11-06T08:15:37.328Z,12.03
2018-11-06T08:18:07.928Z,11.93
2018-11-06T08:20:38.738Z,13.62
2018-11-06T08:23:09.450Z,12.30
2018-11-06T08:25:40.040Z,12.47
2018-11-06T08:28:10.835Z,12.23
2018-11-06T08:30:41.481Z,12.65
2018-11-06T08:33:12.172Z,11.68
2018-11-06T08:35:42.757Z,12.18
2018-11-06T08:38:13.361Z,11.22
2018-11-06T08:40:43.959Z,11.85
2018-11-06T08:43:14.527Z,12.40
2018-11-06T08:45:45.119Z,12.30
2018-11-06T08:48:16.022Z,12.07
2018-11-06T08:50:46.775Z,11.80
2018-11-06T08:53:17.355Z,12.28
2018-11-06T08:55:47.963Z,11.83
2018-11-06T08:58:18.527Z,12.05
2018-11-06T09:00:49.095Z,12.43
2018-11-06T09:03:19.696Z,12.05
2018-11-06T09:05:50.276Z,12.03
2018-11-06T09:08:20.880Z,12.30
2018-11-06T09:10:51.452Z,13.00
2018-11-06T09:13:22.389Z,12.53
2018-11-06T09:15:52.935Z,12.40
2018-11-06T09:18:23.519Z,11.93
2018-11-06T09:20:54.301Z,13.58
2018-11-06T09:23:24.886Z,14.23
2018-11-06T09:25:55.474Z,13.22
2018-11-06T09:28:26.047Z,13.28
2018-11-06T09:30:56.660Z,13.18
2018-11-06T09:33:27.387Z,13.88
2018-11-06T09:35:57.981Z,13.10
2018-11-06T09:38:28.589Z,13.58
2018-11-06T09:40:59.189Z,14.53
2018-11-06T09:43:29.816Z,13.10
2018-11-06T09:46:00.403Z,13.43
2018-11-06T09:48:30.977Z,13.62
2018-11-06T09:51:01.572Z,13.15
2018-11-06T09:53:32.351Z,12.85
2018-11-06T09:56:02.951Z,12.65
2018-11-06T09:58:33.562Z,12.35
2018-11-06T10:01:04.314Z,13.15
2018-11-06T10:03:35.190Z,13.08
2018-11-06T10:06:06.045Z,13.15
2018-11-06T10:08:36.761Z,12.98
2018-11-06T10:11:07.430Z,12.65
2018-11-06T10:13:38.039Z,12.40
2018-11-06T10:16:08.699Z,12.73
2018-11-06T10:18:39.636Z,12.88
2018-11-06T10:21:13.286Z,13.10
2018-11-06T10:23:44.258Z,12.90
2018-11-06T10:26:15.173Z,12.88
2018-11-06T10:28:45.746Z,12.55
2018-11-06T10:31:16.340Z,13.15
2018-11-06T10:33:46.923Z,14.15
2018-11-06T10:36:17.471Z,12.35
2018-11-06T10:38:48.090Z,12.60
2018-11-06T10:41:18.898Z,12.28
2018-11-06T10:43:49.687Z,12.95
2018-11-06T10:46:20.239Z,12.07
2018-11-06T10:48:50.843Z,12.35
2018-11-06T10:51:21.426Z,12.30
2018-11-06T10:53:55.024Z,12.47
2018-11-06T10:56:25.627Z,11.97
2018-11-06T10:58:56.238Z,11.22
2018-11-06T11:01:32.240Z,11.93
2018-11-06T11:04:08.372Z,12.05
2018-11-06T11:06:39.103Z,12.60
2018-11-06T11:09:10.496Z,11.33
2018-11-06T11:11:41.255Z,11.88
2018-11-06T11:14:11.827Z,11.50
2018-11-06T11:16:42.426Z,12.05
2018-11-06T11:19:12.998Z,11.83
2018-11-06T11:21:43.743Z,14.30
2018-11-06T11:24:14.507Z,13.03
2018-11-06T11:26:45.099Z,11.48
2018-11-06T11:29:15.691Z,13.38
2018-11-06T11:31:46.272Z,11.88
2018-11-06T11:34:17.043Z,12.65
2018-11-06T11:36:47.633Z,13.28
2018-11-06T11:39:18.235Z,12.28
2018-11-06T11:41:48.827Z,11.73
2018-11-06T11:44:19.391Z,10.45
2018-11-06T11:46:49.996Z,11.15
2018-11-06T11:49:20.561Z,10.60
2018-11-06T11:51:51.147Z,11.25
2018-11-06T11:54:21.708Z,11.08
2018-11-06T11:56:52.290Z,9.83
2018-11-06T11:59:23.072Z,11.68
2018-11-06T12:01:53.637Z,10.05
2018-11-06T12:04:24.231Z,10.20
2018-11-06T12:06:54.791Z,10.98
2018-11-06T12:09:25.371Z,10.48
2018-11-06T12:11:55.947Z,10.35
2018-11-06T12:14:26.547Z,10.05
2018-11-06T12:16:57.137Z,10.30
2018-11-06T12:19:27.719Z,10.05
2018-11-06T12:21:58.439Z,9.30
2018-11-06T12:24:29.430Z,8.98
2018-11-06T12:27:00.108Z,9.08
2018-11-06T12:29:30.699Z,9.15
2018-11-06T12:32:01.444Z,8.45
2018-11-06T12:34:32.053Z,9.00
2018-11-06T12:37:02.964Z,8.13
2018-11-06T12:39:33.626Z,9.13
2018-11-06T12:42:04.203Z,9.43
2018-11-06T12:44:34.805Z,9.25
2018-11-06T12:47:05.834Z,8.98
2018-11-06T12:49:36.400Z,9.03
2018-11-06T12:52:07.324Z,8.90
2018-11-06T12:54:37.887Z,8.20
2018-11-06T12:57:08.459Z,8.78
2018-11-06T12:59:39.195Z,7.25
2018-11-06T13:02:09.784Z,7.50
2018-11-06T13:04:40.343Z,7.80
2018-11-06T13:07:10.910Z,8.15
2018-11-06T13:09:41.525Z,7.50
2018-11-06T13:12:12.284Z,7.67
2018-11-06T13:14:42.842Z,7.37
2018-11-06T13:17:13.586Z,7.80
2018-11-06T13:19:44.211Z,7.58
2018-11-06T13:22:14.816Z,7.33
2018-11-06T13:24:45.391Z,7.17
2018-11-06T13:27:15.980Z,7.08
2018-11-06T13:29:46.728Z,6.67
2018-11-06T13:32:17.556Z,7.42
2018-11-06T13:34:48.310Z,7.12
2018-11-06T13:37:18.887Z,7.22
2018-11-06T13:39:49.652Z,6.42
2018-11-06T13:42:20.273Z,7.45
2018-11-06T13:44:51.461Z,6.40
2018-11-06T13:47:21.774Z,6.95
2018-11-06T13:49:52.359Z,7.00
2018-11-06T13:52:22.931Z,6.72
2018-11-06T13:54:53.731Z,7.30
2018-11-06T13:57:24.267Z,7.28
2018-11-06T13:59:54.843Z,7.58
2018-11-06T14:02:25.408Z,7.55
2018-11-06T14:04:56.029Z,7.47
2018-11-06T14:07:26.566Z,6.30
2018-11-06T14:09:57.156Z,7.10
2018-11-06T14:12:27.699Z,7.35
2018-11-06T14:14:58.286Z,6.70
2018-11-06T14:17:29.048Z,7.90
2018-11-06T14:19:59.847Z,6.83
2018-11-06T14:22:30.608Z,7.20
2018-11-06T14:25:01.388Z,7.08
2018-11-06T14:27:32.187Z,6.95
2018-11-06T14:30:02.998Z,8.18
2018-11-06T14:32:33.549Z,6.22
2018-11-06T14:35:04.963Z,7.20
2018-11-06T14:37:35.654Z,7.72
2018-11-06T14:40:07.560Z,6.20
2018-11-06T14:42:38.691Z,6.50
2018-11-06T14:45:10.774Z,6.50
2018-11-06T14:47:41.390Z,7.35
2018-11-06T14:50:12.647Z,6.12
2018-11-06T14:52:43.221Z,7.47
2018-11-06T14:55:15.043Z,6.55
2018-11-06T14:57:45.700Z,6.90
2018-11-06T15:00:17.671Z,6.05
2018-11-06T15:02:49.478Z,6.70
2018-11-06T15:05:21.098Z,6.65
2018-11-06T15:07:51.850Z,6.60
2018-11-06T15:10:22.406Z,6.97
2018-11-06T15:12:52.983Z,6.70
2018-11-06T15:15:29.968Z,6.58
2018-11-06T15:18:00.597Z,6.78
2018-11-06T15:20:31.155Z,7.72
2018-11-06T15:23:01.777Z,7.28
2018-11-06T15:25:32.514Z,7.03
2018-11-06T15:28:03.079Z,6.67
2018-11-06T15:30:33.640Z,6.22
2018-11-06T15:33:04.230Z,6.92
2018-11-06T15:35:35.003Z,7.33
2018-11-06T15:38:06.167Z,7.00
2018-11-06T15:40:36.767Z,6.75
2018-11-06T15:43:07.335Z,8.05
2018-11-06T15:45:37.874Z,7.70
2018-11-06T15:48:08.647Z,7.05
2018-11-06T15:50:39.199Z,8.18
2018-11-06T15:53:09.774Z,8.35
2018-11-06T15:55:40.530Z,7.53
2018-11-06T15:58:11.127Z,7.75
2018-11-06T16:00:41.768Z,7.12
2018-11-06T16:03:12.539Z,7.50
2018-11-06T16:05:43.099Z,7.70
2018-11-06T16:08:13.730Z,7.00
2018-11-06T16:10:44.499Z,6.60
2018-11-06T16:13:15.099Z,8.08
2018-11-06T16:15:45.854Z,7.70
2018-11-06T16:18:16.433Z,7.75
2018-11-06T16:20:47.003Z,8.53
2018-11-06T16:23:17.810Z,8.15
2018-11-06T16:25:48.541Z,8.80
2018-11-06T16:28:19.134Z,9.28
2018-11-06T16:30:49.900Z,8.83
2018-11-06T16:33:20.691Z,8.65
2018-11-06T16:35:51.242Z,9.78
2018-11-06T16:38:21.831Z,8.38
2018-11-06T16:40:52.410Z,9.05
2018-11-06T16:43:23.047Z,8.38
2018-11-06T16:45:53.621Z,7.70
2018-11-06T16:48:24.271Z,7.97
2018-11-06T16:50:55.020Z,7.75
2018-11-06T16:53:25.574Z,7.65
2018-11-06T16:55:56.183Z,8.18
2018-11-06T16:58:26.751Z,7.90
2018-11-06T17:00:57.480Z,7.75
2018-11-06T17:03:28.105Z,7.15
2018-11-06T17:05:58.697Z,7.65
2018-11-06T17:08:29.287Z,8.08
2018-11-06T17:10:59.904Z,6.95
2018-11-06T17:13:30.467Z,7.62
2018-11-06T17:16:01.043Z,7.72
2018-11-06T17:18:31.599Z,7.80
2018-11-06T17:21:02.187Z,7.97
2018-11-06T17:23:32.792Z,8.48
2018-11-06T17:26:03.959Z,8.38
2018-11-06T17:28:34.520Z,8.48
2018-11-06T17:31:05.666Z,8.20
2018-11-06T17:33:36.242Z,7.58
2018-11-06T17:36:07.335Z,8.10
2018-11-06T17:38:37.902Z,8.20
2018-11-06T17:41:08.488Z,8.25
2018-11-06T17:43:39.059Z,7.78
2018-11-06T17:46:09.635Z,9.48
2018-11-06T17:48:40.663Z,8.88
2018-11-06T17:51:11.264Z,9.48
2018-11-06T17:53:41.843Z,9.05
2018-11-06T17:56:12.515Z,8.73
2018-11-06T17:58:43.147Z,8.83
2018-11-06T18:01:14.099Z,8.38
2018-11-06T18:03:44.793Z,8.50
2018-11-06T18:06:15.587Z,9.38
2018-11-06T18:08:46.152Z,8.78
2018-11-06T18:11:16.743Z,8.95
2018-11-06T18:13:47.378Z,8.25
2018-11-06T18:16:17.956Z,9.13
2018-11-06T18:18:48.533Z,8.43
2018-11-06T18:21:19.108Z,8.50
2018-11-06T18:23:49.724Z,8.90
2018-11-06T18:26:20.287Z,8.45
2018-11-06T18:28:50.884Z,10.13
2018-11-06T18:31:21.756Z,9.28
2018-11-06T18:33:52.339Z,9.40
2018-11-06T18:36:22.927Z,8.40
2018-11-06T18:38:53.797Z,9.85
2018-11-06T18:41:24.376Z,8.90
2018-11-06T18:43:54.957Z,8.98
2018-11-06T18:46:25.715Z,8.85
2018-11-06T18:48:56.300Z,8.85
2018-11-06T18:51:26.882Z,8.80
2018-11-06T18:53:57.439Z,9.00
2018-11-06T18:56:28.028Z,8.70
2018-11-06T18:58:58.624Z,8.28
2018-11-06T19:01:29.184Z,9.20
2018-11-06T19:03:59.727Z,10.05
2018-11-06T19:06:30.360Z,8.93
2018-11-06T19:09:00.900Z,9.43
2018-11-06T19:11:31.700Z,9.35
2018-11-06T19:14:02.448Z,9.90
2018-11-06T19:16:33.075Z,9.33
2018-11-06T19:19:03.787Z,9.65
2018-11-06T19:21:34.358Z,9.28
2018-11-06T19:24:05.521Z,9.63
2018-11-06T19:26:36.235Z,8.58
2018-11-06T19:29:06.959Z,8.95
2018-11-06T19:31:37.575Z,8.93
2018-11-06T19:34:08.159Z,9.20
2018-11-06T19:36:38.747Z,9.03
2018-11-06T19:39:12.276Z,8.80
2018-11-06T19:41:43.274Z,8.50
2018-11-06T19:44:13.835Z,8.55
2018-11-06T19:46:44.739Z,9.48
2018-11-06T19:49:15.296Z,9.45
2018-11-06T19:51:45.902Z,9.15
2018-11-06T19:54:16.741Z,9.68
2018-11-06T19:56:47.792Z,8.70
2018-11-06T19:59:18.584Z,8.85
2018-11-06T20:01:49.357Z,8.88
2018-11-06T20:04:20.099Z,9.30
2018-11-06T20:06:50.651Z,9.98
2018-11-06T20:09:21.241Z,10.18
2018-11-06T20:11:52.102Z,9.18
2018-11-06T20:14:22.803Z,10.35
2018-11-06T20:16:53.355Z,9.45
2018-11-06T20:19:23.961Z,9.85
2018-11-06T20:21:54.690Z,9.58
2018-11-06T20:24:25.467Z,10.85
2018-11-06T20:26:56.034Z,10.30
2018-11-06T20:29:26.599Z,9.75
2018-11-06T20:31:57.846Z,9.05
2018-11-06T20:34:28.612Z,9.23
2018-11-06T20:36:59.188Z,9.95
2018-11-06T20:39:29.897Z,10.88
2018-11-06T20:42:00.617Z,9.60
2018-11-06T20:44:31.243Z,10.20
2018-11-06T20:47:01.952Z,10.32
2018-11-06T20:49:32.551Z,10.10
2018-11-06T20:52:03.283Z,9.73
2018-11-06T20:54:33.955Z,10.25
2018-11-06T20:57:04.824Z,9.65
2018-11-06T20:59:35.376Z,9.53
2018-11-06T21:02:06.507Z,10.03
2018-11-06T21:04:37.119Z,10.32
2018-11-06T21:07:07.709Z,10.93
2018-11-06T21:09:38.262Z,10.23
2018-11-06T21:12:08.882Z,11.38
2018-11-06T21:14:39.424Z,10.13
2018-11-06T21:17:10.003Z,10.98
2018-11-06T21:19:40.596Z,9.65
2018-11-06T21:22:12.094Z,11.25
2018-11-06T21:24:42.724Z,10.68
2018-11-06T21:27:13.717Z,10.65
2018-11-06T21:29:44.244Z,9.48
2018-11-06T21:32:14.835Z,10.05
2018-11-06T21:34:45.387Z,9.33
2018-11-06T21:37:15.971Z,9.20
2018-11-06T21:39:46.555Z,9.85
2018-11-06T21:42:17.320Z,9.68
2018-11-06T21:44:47.883Z,9.43
2018-11-06T21:47:18.472Z,8.70
2018-11-06T21:49:49.038Z,9.38
2018-11-06T21:52:19.607Z,8.28
2018-11-06T21:54:50.463Z,8.30
2018-11-06T21:57:21.152Z,9.48
2018-11-06T21:59:51.887Z,9.45
2018-11-06T22:02:22.863Z,9.93
2018-11-06T22:04:53.449Z,9.43
2018-11-06T22:07:24.124Z,8.68
2018-11-06T22:09:54.882Z,9.13
2018-11-06T22:12:25.510Z,8.73
2018-11-06T22:14:56.224Z,8.90
2018-11-06T22:17:26.820Z,9.10
2018-11-06T22:19:57.398Z,9.70
2018-11-06T22:22:28.175Z,9.00
2018-11-06T22:24:58.870Z,9.53
2018-11-06T22:27:29.529Z,10.15
2018-11-06T22:30:00.244Z,9.63
2018-11-06T22:32:30.812Z,9.98
2018-11-06T22:35:01.372Z,9.80
2018-11-06T22:37:32.204Z,9.15
2018-11-06T22:40:02.940Z,8.80
2018-11-06T22:42:33.745Z,9.13
2018-11-06T22:45:04.968Z,8.15
2018-11-06T22:47:35.559Z,7.45
2018-11-06T22:50:07.961Z,8.38
2018-11-06T22:52:38.894Z,8.95
2018-11-06T22:55:09.979Z,8.85
2018-11-06T22:57:41.236Z,9.15
2018-11-06T23:00:15.508Z,8.23
2018-11-06T23:02:46.107Z,8.40
2018-11-06T23:05:16.669Z,10.05
2018-11-06T23:07:52.931Z,8.98
2018-11-06T23:10:23.491Z,9.28
2018-11-06T23:12:54.287Z,9.35
2018-11-06T23:15:24.850Z,8.83
2018-11-06T23:17:55.501Z,9.00
2018-11-06T23:20:26.297Z,9.73
2018-11-06T23:22:57.053Z,8.58
2018-11-06T23:25:27.833Z,9.05
2018-11-06T23:27:58.404Z,8.28
2018-11-06T23:30:28.978Z,8.15
2018-11-06T23:32:59.534Z,7.75
2018-11-06T23:35:30.381Z,9.20
2018-11-06T23:38:01.092Z,8.15
2018-11-06T23:40:31.668Z,9.45
2018-11-06T23:43:02.224Z,9.30
2018-11-06T23:45:32.787Z,8.65
2018-11-06T23:48:03.343Z,9.68
2018-11-06T23:50:33.931Z,8.40
2018-11-06T23:53:04.864Z,9.18
2018-11-06T23:55:35.435Z,8.90
2018-11-06T23:58:06.324Z,8.35
